createdAt,value
2018-09-21T00:00:05.445Z,62.60
2018-09-21T00:02:32.939Z,62.60
2018-09-21T00:05:00.954Z,62.70
2018-09-21T00:07:28.466Z,62.70
2018-09-21T00:09:56.072Z,63.30
2018-09-21T00:12:23.651Z,63.40
2018-09-21T00:14:51.234Z,63.50
2018-09-21T00:17:18.723Z,63.70
2018-09-21T00:19:46.318Z,63.60
2018-09-21T00:22:13.856Z,64.40
2018-09-21T00:24:41.367Z,64.10
2018-09-21T00:27:08.950Z,64.00
2018-09-21T00:29:36.440Z,64.20
2018-09-21T00:32:04.050Z,64.40
2018-09-21T00:34:31.553Z,64.20
2018-09-21T00:36:59.114Z,64.40
2018-09-21T00:39:26.624Z,64.70
2018-09-21T00:41:54.199Z,64.90
2018-09-21T00:44:21.699Z,65.10
2018-09-21T00:46:49.291Z,65.30
2018-09-21T00:49:16.866Z,65.40
2018-09-21T00:51:44.498Z,65.70
2018-09-21T00:54:11.974Z,66.90
2018-09-21T00:56:39.582Z,66.60
2018-09-21T00:59:07.064Z,66.20
2018-09-21T01:01:34.592Z,70.20
2018-09-21T01:04:02.177Z,68.50
2018-09-21T01:06:29.737Z,67.90
2018-09-21T01:08:57.333Z,69.20
2018-09-21T01:11:24.823Z,68.30
2018-09-21T01:13:52.406Z,66.50
2018-09-21T01:16:19.905Z,66.60
2018-09-21T01:18:47.444Z,66.40
2018-09-21T01:21:14.935Z,66.60
2018-09-21T01:23:42.552Z,66.60
2018-09-21T01:26:10.099Z,66.70
2018-09-21T01:28:37.697Z,66.80
2018-09-21T01:31:05.390Z,67.60
2018-09-21T01:33:32.939Z,67.90
2018-09-21T01:36:00.857Z,67.90
2018-09-21T01:38:28.440Z,67.90
2018-09-21T01:40:55.944Z,69.00
2018-09-21T01:43:23.494Z,69.00
2018-09-21T01:45:50.978Z,69.70
2018-09-21T01:48:18.561Z,70.10
2018-09-21T01:50:46.047Z,70.20
2018-09-21T01:53:13.600Z,70.70
2018-09-21T01:55:41.107Z,70.50
2018-09-21T01:58:08.674Z,70.40
2018-09-21T02:00:36.132Z,71.20
2018-09-21T02:03:03.675Z,70.70
2018-09-21T02:05:31.398Z,71.40
2018-09-21T02:07:58.883Z,71.60
2018-09-21T02:10:26.472Z,71.70
2018-09-21T02:12:54.061Z,71.20
2018-09-21T02:15:21.526Z,70.90
2018-09-21T02:17:49.081Z,71.10
2018-09-21T02:20:16.578Z,71.10
2018-09-21T02:22:44.070Z,70.90
2018-09-21T02:25:11.605Z,71.10
2018-09-21T02:27:39.178Z,71.50
2018-09-21T02:30:06.807Z,71.80
2018-09-21T02:32:34.880Z,71.60
2018-09-21T02:35:02.466Z,72.10
2018-09-21T02:37:29.962Z,72.40
2018-09-21T02:39:57.543Z,72.50
2018-09-21T02:42:26.050Z,72.70
2018-09-21T02:44:53.623Z,72.40
2018-09-21T02:47:21.109Z,72.80
2018-09-21T02:49:48.595Z,72.40
2018-09-21T02:52:16.136Z,72.00
2018-09-21T02:54:43.622Z,72.20
2018-09-21T02:57:11.238Z,72.50
2018-09-21T02:59:38.727Z,72.50
2018-09-21T03:02:06.272Z,72.60
2018-09-21T03:04:38.345Z,72.50
2018-09-21T03:07:05.929Z,72.70
2018-09-21T03:09:33.415Z,72.30
2018-09-21T03:12:00.989Z,72.80
2018-09-21T03:14:28.494Z,72.70
2018-09-21T03:16:56.060Z,73.30
2018-09-21T03:19:23.555Z,73.70
2018-09-21T03:21:51.104Z,74.20
2018-09-21T03:24:18.666Z,74.10
2018-09-21T03:26:46.161Z,74.50
2018-09-21T03:29:13.721Z,75.20
2018-09-21T03:31:41.246Z,75.30
2018-09-21T03:34:08.825Z,74.80
2018-09-21T03:36:36.296Z,74.90
2018-09-21T03:39:06.319Z,74.90
2018-09-21T03:41:33.803Z,74.70
2018-09-21T03:44:01.396Z,74.70
2018-09-21T03:46:28.894Z,75.10
2018-09-21T03:48:56.474Z,74.90
2018-09-21T03:51:23.969Z,75.10
2018-09-21T03:53:51.547Z,75.30
2018-09-21T03:56:19.014Z,75.40
2018-09-21T03:58:46.756Z,75.80
2018-09-21T04:01:14.367Z,76.20
2018-09-21T04:03:41.897Z,76.30
2018-09-21T04:06:09.456Z,76.20
2018-09-21T04:08:37.014Z,76.40
2018-09-21T04:11:04.686Z,76.40
2018-09-21T04:13:32.245Z,76.30
2018-09-21T04:15:59.794Z,76.90
2018-09-21T04:18:27.278Z,77.10
2018-09-21T04:20:54.861Z,76.60
2018-09-21T04:23:22.408Z,76.50
2018-09-21T04:25:49.982Z,76.80
2018-09-21T04:28:17.542Z,76.90
2018-09-21T04:30:45.125Z,76.70
2018-09-21T04:33:12.606Z,76.70
2018-09-21T04:35:40.169Z,76.30
2018-09-21T04:38:07.654Z,76.10
2018-09-21T04:40:35.267Z,75.50
2018-09-21T04:43:02.866Z,75.40
2018-09-21T04:45:30.406Z,75.30
2018-09-21T04:47:57.954Z,75.40
2018-09-21T04:50:25.518Z,75.10
2018-09-21T04:52:53.035Z,74.80
2018-09-21T04:55:20.530Z,74.50
2018-09-21T04:57:48.140Z,74.70
2018-09-21T05:00:15.631Z,74.50
2018-09-21T05:02:43.219Z,74.30
2018-09-21T05:05:10.747Z,74.00
2018-09-21T05:07:38.325Z,73.60
2018-09-21T05:10:05.842Z,73.80
2018-09-21T05:12:33.444Z,74.00
2018-09-21T05:15:00.938Z,73.80
2018-09-21T05:17:28.542Z,73.80
2018-09-21T05:19:56.054Z,73.70
2018-09-21T05:22:23.601Z,73.70
2018-09-21T05:24:51.100Z,74.00
2018-09-21T05:27:18.654Z,74.20
2018-09-21T05:29:46.147Z,74.00
2018-09-21T05:32:13.741Z,74.30
2018-09-21T05:34:41.408Z,74.70
2018-09-21T05:37:08.853Z,74.60
2018-09-21T05:39:36.471Z,74.80
2018-09-21T05:42:04.055Z,74.50
2018-09-21T05:44:31.657Z,74.40
2018-09-21T05:46:59.266Z,74.90
2018-09-21T05:49:26.776Z,74.10
2018-09-21T05:51:54.329Z,73.60
2018-09-21T05:54:21.855Z,73.90
2018-09-21T05:56:49.362Z,74.00
2018-09-21T05:59:17.522Z,75.10
2018-09-21T06:01:45.152Z,74.70
2018-09-21T06:04:12.746Z,74.80
2018-09-21T06:06:40.491Z,74.50
2018-09-21T06:09:10.258Z,74.50
2018-09-21T06:11:37.905Z,74.10
2018-09-21T06:14:05.663Z,74.80
2018-09-21T06:16:33.205Z,74.10
2018-09-21T06:19:00.865Z,73.80
2018-09-21T06:21:28.433Z,73.70
2018-09-21T06:23:55.995Z,73.70
2018-09-21T06:26:23.511Z,73.10
2018-09-21T06:28:51.133Z,73.40
2018-09-21T06:31:19.190Z,73.00
2018-09-21T06:33:46.837Z,72.90
2018-09-21T06:36:14.402Z,72.80
2018-09-21T06:38:41.930Z,72.50
2018-09-21T06:41:09.566Z,72.70
2018-09-21T06:43:37.035Z,72.40
2018-09-21T06:46:04.688Z,71.80
2018-09-21T06:48:32.232Z,71.50
2018-09-21T06:50:59.786Z,72.20
2018-09-21T06:53:27.290Z,71.60
2018-09-21T06:55:54.907Z,71.20
2018-09-21T06:58:22.431Z,70.60
2018-09-21T07:00:49.916Z,70.10
2018-09-21T07:03:17.498Z,70.40
2018-09-21T07:05:45.173Z,70.80
2018-09-21T07:08:12.802Z,68.80
2018-09-21T07:10:40.423Z,69.00
2018-09-21T07:13:08.000Z,68.50
2018-09-21T07:15:35.514Z,68.10
2018-09-21T07:18:03.097Z,67.30
2018-09-21T07:20:30.586Z,67.10
2018-09-21T07:22:58.183Z,67.50
2018-09-21T07:25:25.725Z,66.00
2018-09-21T07:27:53.305Z,67.50
2018-09-21T07:30:20.866Z,65.50
2018-09-21T07:32:48.527Z,66.50
2018-09-21T07:35:16.075Z,66.40
2018-09-21T07:37:43.690Z,65.30
2018-09-21T07:40:11.317Z,64.30
2018-09-21T07:42:38.914Z,63.30
2018-09-21T07:45:06.441Z,63.80
2018-09-21T07:47:34.015Z,61.30
2018-09-21T07:50:01.572Z,62.70
2018-09-21T07:52:29.234Z,60.30
2018-09-21T07:54:56.790Z,59.10
2018-09-21T07:57:24.445Z,59.70
2018-09-21T07:59:51.962Z,58.80
2018-09-21T08:02:19.461Z,58.80
2018-09-21T08:04:47.121Z,58.10
2018-09-21T08:07:14.761Z,57.90
2018-09-21T08:09:42.378Z,58.50
2018-09-21T08:12:09.969Z,58.40
2018-09-21T08:14:37.537Z,57.20
2018-09-21T08:17:05.308Z,57.30
2018-09-21T08:19:32.944Z,57.00
2018-09-21T08:22:00.462Z,57.20
2018-09-21T08:24:28.037Z,58.10
2018-09-21T08:26:55.635Z,56.70
2018-09-21T08:29:23.246Z,57.00
2018-09-21T08:31:50.757Z,56.20
2018-09-21T08:34:18.460Z,56.70
2018-09-21T08:36:45.982Z,56.60
2018-09-21T08:39:13.564Z,55.80
2018-09-21T08:41:41.419Z,56.30
2018-09-21T08:44:09.542Z,56.20
2018-09-21T08:46:37.117Z,56.80
2018-09-21T08:49:04.858Z,56.30
2018-09-21T08:51:32.579Z,56.30
2018-09-21T08:54:00.075Z,55.90
2018-09-21T08:56:27.899Z,55.30
2018-09-21T08:58:55.417Z,55.30
2018-09-21T09:01:23.073Z,55.90
2018-09-21T09:03:50.623Z,54.10
2018-09-21T09:06:18.282Z,52.80
2018-09-21T09:08:45.843Z,53.50
2018-09-21T09:11:13.478Z,52.40
2018-09-21T09:13:41.042Z,53.10
2018-09-21T09:16:08.695Z,52.70
2018-09-21T09:18:36.173Z,52.70
2018-09-21T09:21:03.791Z,53.60
2018-09-21T09:23:31.347Z,53.50
2018-09-21T09:25:58.988Z,53.00
2018-09-21T09:28:26.529Z,52.80
2018-09-21T09:30:54.177Z,53.10
2018-09-21T09:33:21.717Z,53.10
2018-09-21T09:35:49.307Z,53.60
2018-09-21T09:38:16.848Z,53.00
2018-09-21T09:40:44.469Z,53.00
2018-09-21T09:43:12.020Z,53.50
2018-09-21T09:45:39.611Z,54.00
2018-09-21T09:48:07.174Z,53.70
2018-09-21T09:50:34.779Z,54.20
2018-09-21T09:53:02.329Z,53.10
2018-09-21T09:55:29.853Z,52.70
2018-09-21T09:57:57.446Z,52.50
2018-09-21T10:00:30.567Z,52.60
2018-09-21T10:02:58.779Z,52.70
2018-09-21T10:05:26.366Z,52.60
2018-09-21T10:07:54.075Z,53.90
2018-09-21T10:10:21.745Z,52.70
2018-09-21T10:12:49.314Z,53.20
2018-09-21T10:15:17.265Z,53.00
2018-09-21T10:17:44.861Z,53.30
2018-09-21T10:20:12.375Z,53.20
2018-09-21T10:22:39.973Z,52.70
2018-09-21T10:25:07.482Z,53.60
2018-09-21T10:27:35.286Z,54.80
2018-09-21T10:30:02.752Z,53.50
2018-09-21T10:32:30.335Z,53.90
2018-09-21T10:34:57.793Z,53.50
2018-09-21T10:37:25.429Z,53.70
2018-09-21T10:39:53.095Z,53.80
2018-09-21T10:42:20.768Z,53.90
2018-09-21T10:44:48.871Z,53.30
2018-09-21T10:47:16.479Z,53.60
2018-09-21T10:49:43.988Z,54.30
2018-09-21T10:52:11.610Z,53.80
2018-09-21T10:54:39.134Z,54.10
2018-09-21T10:57:06.771Z,52.80
2018-09-21T10:59:34.291Z,53.60
2018-09-21T11:02:02.011Z,51.80
2018-09-21T11:04:29.691Z,52.50
2018-09-21T11:06:57.381Z,52.10
2018-09-21T11:09:24.916Z,52.50
2018-09-21T11:11:52.518Z,51.50
2018-09-21T11:14:20.029Z,52.20
2018-09-21T11:16:47.535Z,51.70
2018-09-21T11:19:15.171Z,52.00
2018-09-21T11:21:42.727Z,51.90
2018-09-21T11:24:10.417Z,51.80
2018-09-21T11:26:37.988Z,51.60
2018-09-21T11:29:05.690Z,52.90
2018-09-21T11:31:33.225Z,53.00
2018-09-21T11:34:00.941Z,52.50
2018-09-21T11:36:28.524Z,52.50
2018-09-21T11:38:56.130Z,52.60
2018-09-21T11:41:23.788Z,52.90
2018-09-21T11:43:51.496Z,52.80
2018-09-21T11:46:19.158Z,52.50
2018-09-21T11:48:46.883Z,52.90
2018-09-21T11:51:15.382Z,52.40
2018-09-21T11:53:43.087Z,53.50
2018-09-21T11:56:10.642Z,52.80
2018-09-21T11:58:38.302Z,52.60
2018-09-21T12:01:06.776Z,53.10
2018-09-21T12:03:34.448Z,53.90
2018-09-21T12:06:04.865Z,53.00
2018-09-21T12:08:32.630Z,52.70
2018-09-21T12:11:00.228Z,52.90
2018-09-21T12:13:27.885Z,52.70
2018-09-21T12:15:56.149Z,53.80
2018-09-21T12:18:23.781Z,53.20
2018-09-21T12:20:51.451Z,52.80
2018-09-21T12:23:19.071Z,53.30
2018-09-21T12:25:47.677Z,53.00
2018-09-21T12:28:15.305Z,53.10
2018-09-21T12:30:42.988Z,52.80
2018-09-21T12:33:10.618Z,52.90
2018-09-21T12:35:38.275Z,53.30
2018-09-21T12:38:06.297Z,53.50
2018-09-21T12:40:34.015Z,53.40
2018-09-21T12:43:01.595Z,52.80
2018-09-21T12:45:29.206Z,52.60
2018-09-21T12:47:56.889Z,53.40
2018-09-21T12:50:24.705Z,53.00
2018-09-21T12:52:52.297Z,53.30
2018-09-21T12:55:19.969Z,53.30
2018-09-21T12:57:47.696Z,53.10
2018-09-21T13:00:15.313Z,53.20
2018-09-21T13:02:43.195Z,53.60
2018-09-21T13:05:10.734Z,54.60
2018-09-21T13:07:38.422Z,54.00
2018-09-21T13:10:06.794Z,53.30
2018-09-21T13:12:34.461Z,54.20
2018-09-21T13:15:02.674Z,53.80
2018-09-21T13:17:30.309Z,54.70
2018-09-21T13:19:58.003Z,53.90
2018-09-21T13:22:25.656Z,54.20
2018-09-21T13:24:53.301Z,55.00
2018-09-21T13:27:20.967Z,54.40
2018-09-21T13:29:48.594Z,53.70
2018-09-21T13:32:16.439Z,53.60
2018-09-21T13:34:43.989Z,52.70
2018-09-21T13:37:11.779Z,53.30
2018-09-21T13:39:40.323Z,52.70
2018-09-21T13:42:07.982Z,53.70
2018-09-21T13:44:35.644Z,54.20
2018-09-21T13:47:03.253Z,54.50
2018-09-21T13:49:30.916Z,53.70
2018-09-21T13:51:58.501Z,53.20
2018-09-21T13:54:26.045Z,53.90
2018-09-21T13:56:53.761Z,53.70
2018-09-21T13:59:21.535Z,53.30
2018-09-21T14:01:49.282Z,53.30
2018-09-21T14:04:16.921Z,52.90
2018-09-21T14:06:44.669Z,52.70
2018-09-21T14:09:12.284Z,53.70
2018-09-21T14:11:39.956Z,54.40
2018-09-21T14:14:07.616Z,65.10
2018-09-21T14:16:35.379Z,62.70
2018-09-21T14:19:03.097Z,61.10
2018-09-21T14:21:30.941Z,59.10
2018-09-21T14:23:58.619Z,58.90
2018-09-21T14:26:26.304Z,58.20
2018-09-21T14:28:53.996Z,55.60
2018-09-21T14:31:21.721Z,52.30
2018-09-21T14:33:49.617Z,51.70
2018-09-21T14:36:17.392Z,51.30
2018-09-21T14:38:45.083Z,50.40
2018-09-21T14:41:12.854Z,48.80
2018-09-21T14:43:40.645Z,46.70
2018-09-21T14:46:08.872Z,45.90
2018-09-21T14:48:36.688Z,46.20
2018-09-21T14:51:04.522Z,45.80
2018-09-21T14:53:32.261Z,45.80
2018-09-21T14:55:59.972Z,46.00
2018-09-21T14:58:27.740Z,46.20
2018-09-21T15:00:55.446Z,45.90
2018-09-21T15:03:23.222Z,46.20
2018-09-21T15:05:51.065Z,46.00
2018-09-21T15:08:18.812Z,46.00
2018-09-21T15:10:46.562Z,46.20
2018-09-21T15:13:14.361Z,46.70
2018-09-21T15:15:42.025Z,46.20
2018-09-21T15:18:09.690Z,46.60
2018-09-21T15:20:37.434Z,46.40
2018-09-21T15:23:05.089Z,46.30
2018-09-21T15:25:32.778Z,46.30
2018-09-21T15:28:00.499Z,52.80
2018-09-21T15:30:28.186Z,56.80
2018-09-21T15:32:55.812Z,59.80
2018-09-21T15:35:24.494Z,62.70
2018-09-21T15:37:52.163Z,65.00
2018-09-21T15:40:19.971Z,66.80
2018-09-21T15:42:47.537Z,67.10
2018-09-21T15:45:15.174Z,67.20
2018-09-21T15:47:42.742Z,69.40
2018-09-21T15:50:10.884Z,71.40
2018-09-21T15:52:38.514Z,72.40
2018-09-21T15:55:06.131Z,72.40
2018-09-21T15:57:33.774Z,73.10
2018-09-21T16:00:01.508Z,73.70
2018-09-21T16:02:29.150Z,74.70
2018-09-21T16:04:57.080Z,76.10
2018-09-21T16:07:24.714Z,77.60
2018-09-21T16:09:52.454Z,77.60
2018-09-21T16:12:20.615Z,78.20
2018-09-21T16:14:48.298Z,78.90
2018-09-21T16:17:16.095Z,79.50
2018-09-21T16:19:43.796Z,80.20
2018-09-21T16:22:11.531Z,80.80
2018-09-21T16:24:39.240Z,80.60
2018-09-21T16:27:07.032Z,80.30
2018-09-21T16:29:34.645Z,80.10
2018-09-21T16:32:02.355Z,79.10
2018-09-21T16:34:30.143Z,78.10
2018-09-21T16:36:57.905Z,79.00
2018-09-21T16:39:25.654Z,78.20
2018-09-21T16:41:53.361Z,77.30
2018-09-21T16:44:21.086Z,77.10
2018-09-21T16:46:48.823Z,77.60
2018-09-21T16:49:16.572Z,78.30
2018-09-21T16:51:44.359Z,79.30
2018-09-21T16:54:11.999Z,80.50
2018-09-21T16:56:39.765Z,80.80
2018-09-21T16:59:07.511Z,81.60
2018-09-21T17:01:36.285Z,81.50
2018-09-21T17:04:03.911Z,81.70
2018-09-21T17:06:31.563Z,81.00
2018-09-21T17:08:59.362Z,80.40
2018-09-21T17:11:27.106Z,79.30
2018-09-21T17:13:54.712Z,78.10
2018-09-21T17:16:22.330Z,77.20
2018-09-21T17:18:50.060Z,76.00
2018-09-21T17:21:17.801Z,75.40
2018-09-21T17:23:45.573Z,75.40
2018-09-21T17:26:13.155Z,75.20
2018-09-21T17:28:40.845Z,75.00
2018-09-21T17:31:08.487Z,75.00
2018-09-21T17:33:36.132Z,74.60
2018-09-21T17:36:03.713Z,74.70
2018-09-21T17:38:31.423Z,74.70
2018-09-21T17:40:59.074Z,75.10
2018-09-21T17:43:26.772Z,75.10
2018-09-21T17:45:54.429Z,75.30
2018-09-21T17:48:22.048Z,75.40
2018-09-21T17:50:49.823Z,74.80
2018-09-21T17:53:17.413Z,75.20
2018-09-21T17:55:45.204Z,75.40
2018-09-21T17:58:12.859Z,75.60
2018-09-21T18:00:40.610Z,76.00
2018-09-21T18:03:08.286Z,76.60
2018-09-21T18:05:36.082Z,76.80
2018-09-21T18:11:00.976Z,76.90
2018-09-21T18:13:31.634Z,77.00
2018-09-21T18:16:07.923Z,76.70
2018-09-21T18:18:44.635Z,76.40
2018-09-21T18:21:18.091Z,76.90
2018-09-21T18:23:47.907Z,75.70
2018-09-21T18:26:19.192Z,75.30
2018-09-21T18:28:51.711Z,75.40
2018-09-21T18:31:25.686Z,75.60
2018-09-21T18:33:53.248Z,74.90
2018-09-21T18:36:20.969Z,74.80
2018-09-21T18:38:48.571Z,74.40
2018-09-21T18:41:16.118Z,73.80
2018-09-21T18:43:43.820Z,73.50
2018-09-21T18:46:11.437Z,72.90
2018-09-21T18:48:39.147Z,72.50
2018-09-21T18:51:06.786Z,72.70
2018-09-21T18:53:34.473Z,72.60
2018-09-21T18:56:02.390Z,72.70
2018-09-21T18:58:30.388Z,72.90
2018-09-21T19:00:58.027Z,72.20
2018-09-21T19:03:25.680Z,72.20
2018-09-21T19:05:53.484Z,72.00
2018-09-21T19:08:21.219Z,72.10
2018-09-21T19:10:48.837Z,71.80
2018-09-21T19:13:16.698Z,71.80
2018-09-21T19:15:44.801Z,71.40
2018-09-21T19:18:12.835Z,71.30
2018-09-21T19:20:40.780Z,71.20
2018-09-21T19:23:08.917Z,70.70
2018-09-21T19:25:36.807Z,71.00
2018-09-21T19:28:04.839Z,71.10
2018-09-21T19:30:32.865Z,71.20
2018-09-21T19:33:01.416Z,71.00
2018-09-21T19:35:29.159Z,71.40
2018-09-21T19:37:57.139Z,71.60
2018-09-21T19:40:25.021Z,71.80
2018-09-21T19:42:52.885Z,71.40
2018-09-21T19:45:20.633Z,71.90
2018-09-21T19:47:48.094Z,71.70
2018-09-21T19:50:15.768Z,71.30
2018-09-21T19:52:43.366Z,71.00
2018-09-21T19:55:11.023Z,71.10
2018-09-21T19:57:38.612Z,71.20
2018-09-21T20:00:06.561Z,71.40
2018-09-21T20:02:34.142Z,71.30
2018-09-21T20:05:02.256Z,71.40
2018-09-21T20:07:29.873Z,71.20
2018-09-21T20:09:57.550Z,70.90
2018-09-21T20:12:25.153Z,70.60
2018-09-21T20:14:52.710Z,70.90
2018-09-21T20:17:20.367Z,70.30
2018-09-21T20:19:47.946Z,70.00
2018-09-21T20:22:15.670Z,69.50
2018-09-21T20:24:43.214Z,70.40
2018-09-21T20:27:10.896Z,69.60
2018-09-21T20:29:38.637Z,68.30
2018-09-21T20:32:12.096Z,68.60
2018-09-21T20:34:39.751Z,68.10
2018-09-21T20:37:07.495Z,67.30
2018-09-21T20:39:35.031Z,67.40
2018-09-21T20:42:02.743Z,67.90
2018-09-21T20:44:30.326Z,67.60
2018-09-21T20:46:57.934Z,67.20
2018-09-21T20:49:25.516Z,66.90
2018-09-21T20:51:53.243Z,67.00
2018-09-21T20:54:20.746Z,66.60
2018-09-21T20:56:48.375Z,67.90
2018-09-21T20:59:15.954Z,67.10
2018-09-21T21:01:43.498Z,67.10
2018-09-21T21:04:11.142Z,67.50
2018-09-21T21:06:38.759Z,66.60
2018-09-21T21:09:07.610Z,67.10
2018-09-21T21:11:35.154Z,67.30
2018-09-21T21:14:02.746Z,67.00
2018-09-21T21:16:30.338Z,67.10
2018-09-21T21:18:57.979Z,66.90
2018-09-21T21:21:25.562Z,66.60
2018-09-21T21:23:53.194Z,66.60
2018-09-21T21:26:20.837Z,66.50
2018-09-21T21:28:48.679Z,66.70
2018-09-21T21:31:16.395Z,66.10
2018-09-21T21:33:43.984Z,66.10
2018-09-21T21:36:11.641Z,66.40
2018-09-21T21:38:39.342Z,65.90
2018-09-21T21:41:07.030Z,65.60
2018-09-21T21:43:34.625Z,65.90
2018-09-21T21:46:02.295Z,65.30
2018-09-21T21:48:29.821Z,66.30
2018-09-21T21:50:57.440Z,66.20
2018-09-21T21:53:24.999Z,66.40
2018-09-21T21:55:52.538Z,66.10
2018-09-21T21:58:20.141Z,66.80
2018-09-21T22:00:53.469Z,66.90
2018-09-21T22:03:21.125Z,66.60
2018-09-21T22:05:48.842Z,66.80
2018-09-21T22:08:16.614Z,67.00
2018-09-21T22:10:44.247Z,66.50
2018-09-21T22:13:17.350Z,66.80
2018-09-21T22:15:44.996Z,67.20
2018-09-21T22:18:12.627Z,66.50
2018-09-21T22:20:40.203Z,66.90
2018-09-21T22:23:07.806Z,66.20
2018-09-21T22:25:35.345Z,66.80
2018-09-21T22:28:02.938Z,65.70
2018-09-21T22:30:30.450Z,65.60
2018-09-21T22:32:58.037Z,66.10
2018-09-21T22:35:25.605Z,65.80
2018-09-21T22:37:53.257Z,65.20
2018-09-21T22:40:20.789Z,65.50
2018-09-21T22:42:48.362Z,65.90
2018-09-21T22:45:15.904Z,64.70
2018-09-21T22:47:43.541Z,64.70
2018-09-21T22:50:11.113Z,64.40
2018-09-21T22:52:38.652Z,65.30
2018-09-21T22:55:06.337Z,64.70
2018-09-21T22:57:33.855Z,64.70
2018-09-21T23:00:01.552Z,64.70
2018-09-21T23:02:29.092Z,65.30
2018-09-21T23:04:56.771Z,65.30
2018-09-21T23:07:24.282Z,64.70
2018-09-21T23:09:51.908Z,64.80
2018-09-21T23:12:19.464Z,65.20
2018-09-21T23:14:46.983Z,65.70
2018-09-21T23:17:14.576Z,65.90
2018-09-21T23:19:42.201Z,65.80
2018-09-21T23:22:09.691Z,65.60
2018-09-21T23:24:37.307Z,65.50
2018-09-21T23:27:04.909Z,65.90
2018-09-21T23:29:32.441Z,65.60
2018-09-21T23:32:00.058Z,65.80
2018-09-21T23:34:27.630Z,66.00
2018-09-21T23:36:55.227Z,66.20
2018-09-21T23:39:22.743Z,66.50
2018-09-21T23:41:50.369Z,66.20
2018-09-21T23:44:17.917Z,66.20
2018-09-21T23:46:45.499Z,66.10
2018-09-21T23:49:13.010Z,65.80
2018-09-21T23:51:40.551Z,65.20
2018-09-21T23:54:08.071Z,65.40
2018-09-21T23:56:35.669Z,65.00
2018-09-21T23:59:03.221Z,64.30
